Time;durP1;ratioP1;P1;durP2;ratioP2;P2;SDS_P1;SDS_P2;PMS_P1;PMS_P2;Temp;Humidity;BMP_temperature;BMP_pressure;BME280_temperature;BME280_humidity;BME280_pressure;Samples;Min_cycle;Max_cycle;Signal;HPM_P1;HPM_P2
2022/07/27 00:01:19;;;;;;;0.50;0.40;;;21.80;1.00;;;;;;5099285;28;20966;-75
2022/07/27 00:03:47;;;;;;;1.00;0.50;;;21.70;1.00;;;;;;5098997;28;20491;-75
2022/07/27 00:06:17;;;;;;;0.87;0.50;;;21.90;1.00;;;;;;5099638;28;20551;-75
2022/07/27 00:08:44;;;;;;;0.90;0.50;;;22.00;1.00;;;;;;5098899;28;20445;-75
2022/07/27 00:11:13;;;;;;;0.80;0.53;;;22.00;1.00;;;;;;5099055;28;20488;-75
2022/07/27 00:13:40;;;;;;;0.70;0.60;;;22.00;1.00;;;;;;5098168;28;20568;-75
2022/07/27 00:16:08;;;;;;;1.10;0.50;;;21.90;1.00;;;;;;5098809;28;20593;-75
2022/07/27 00:18:35;;;;;;;0.60;0.50;;;21.90;1.00;;;;;;5098480;28;20493;-75
2022/07/27 00:21:02;;;;;;;0.70;0.50;;;22.10;1.00;;;;;;5098800;28;20799;-74
2022/07/27 00:23:29;;;;;;;0.77;0.60;;;22.20;1.00;;;;;;5098358;28;20441;-74
2022/07/27 00:25:56;;;;;;;0.63;0.50;;;22.00;1.00;;;;;;5098966;28;20491;-75
2022/07/27 00:28:24;;;;;;;1.97;0.50;;;21.80;1.00;;;;;;5098231;28;20481;-75
2022/07/27 00:30:51;;;;;;;0.60;0.50;;;21.90;1.00;;;;;;5098285;28;20453;-74
2022/07/27 00:33:18;;;;;;;0.80;0.60;;;21.90;1.00;;;;;;5098525;28;20919;-74
2022/07/27 00:35:45;;;;;;;0.70;0.50;;;22.00;1.00;;;;;;5098415;28;20931;-74
2022/07/27 00:38:12;;;;;;;0.53;0.50;;;22.00;1.00;;;;;;5098658;28;20473;-75
2022/07/27 00:40:42;;;;;;;0.90;0.50;;;22.00;1.00;;;;;;5097601;28;20453;-75
2022/07/27 00:43:09;;;;;;;0.63;0.50;;;22.00;1.00;;;;;;5096678;28;20536;-75
2022/07/27 00:45:37;;;;;;;1.10;0.70;;;21.70;1.00;;;;;;5097127;28;20493;-75
2022/07/27 00:48:05;;;;;;;0.70;0.50;;;21.70;1.00;;;;;;5097048;28;20490;-75
2022/07/27 00:50:32;;;;;;;0.80;0.60;;;21.70;1.00;;;;;;5095169;28;20529;-75
2022/07/27 00:52:59;;;;;;;0.90;0.70;;;21.70;1.00;;;;;;5096363;28;20473;-74
2022/07/27 00:55:27;;;;;;;1.17;0.60;;;21.50;1.00;;;;;;5097582;28;20521;-75
2022/07/27 00:57:54;;;;;;;0.80;0.50;;;21.40;1.00;;;;;;5098129;28;20541;-75
2022/07/27 01:00:21;;;;;;;0.70;0.50;;;21.30;1.00;;;;;;5097708;28;20493;-75
2022/07/27 01:02:49;;;;;;;0.70;0.50;;;21.30;1.00;;;;;;5098293;28;20441;-75
2022/07/27 01:05:16;;;;;;;1.73;0.80;;;21.40;1.00;;;;;;5098027;28;20476;-75
2022/07/27 01:07:46;;;;;;;0.80;0.60;;;21.30;1.00;;;;;;5097886;28;20462;-75
2022/07/27 01:10:12;;;;;;;0.70;0.50;;;21.30;1.00;;;;;;5097727;28;20462;-75
2022/07/27 01:12:39;;;;;;;2.10;0.50;;;21.40;1.00;;;;;;5097516;28;20469;-73
2022/07/27 01:15:07;;;;;;;0.77;0.57;;;21.50;1.00;;;;;;5097783;28;20960;-73
2022/07/27 01:17:34;;;;;;;0.70;0.50;;;21.40;1.00;;;;;;5097154;28;20532;-74
2022/07/27 01:20:02;;;;;;;0.70;0.60;;;21.40;1.00;;;;;;5097107;28;20525;-73
2022/07/27 01:22:31;;;;;;;0.83;0.60;;;21.40;1.00;;;;;;5097135;28;20885;-74
2022/07/27 01:24:58;;;;;;;0.70;0.53;;;21.40;1.00;;;;;;5097392;28;20510;-74
2022/07/27 01:27:25;;;;;;;0.90;0.50;;;21.40;1.00;;;;;;5097969;28;20442;-74
2022/07/27 01:29:52;;;;;;;0.90;0.53;;;21.50;1.00;;;;;;5097452;28;20461;-74
2022/07/27 01:32:19;;;;;;;2.10;0.50;;;21.60;1.00;;;;;;5096979;28;20441;-74
2022/07/27 01:34:45;;;;;;;1.67;0.60;;;21.70;1.00;;;;;;5097055;28;21018;-74
2022/07/27 01:37:12;;;;;;;0.70;0.57;;;21.70;1.00;;;;;;5097359;28;20871;-74
2022/07/27 01:39:41;;;;;;;0.93;0.67;;;21.60;1.00;;;;;;5096948;28;20492;-74
2022/07/27 01:42:08;;;;;;;1.17;0.57;;;21.50;1.00;;;;;;5096944;28;20477;-74
2022/07/27 01:44:35;;;;;;;0.70;0.60;;;21.30;1.00;;;;;;5097118;28;20619;-74
2022/07/27 01:47:01;;;;;;;1.00;0.70;;;21.10;1.00;;;;;;5097435;28;20488;-74
2022/07/27 01:49:28;;;;;;;1.43;0.60;;;21.10;1.00;;;;;;5097065;28;20500;-74
2022/07/27 01:51:55;;;;;;;0.90;0.60;;;21.20;1.00;;;;;;5096955;28;20508;-74
2022/07/27 01:54:24;;;;;;;0.80;0.60;;;21.40;1.00;;;;;;5096392;28;20958;-74
2022/07/27 01:56:53;;;;;;;2.23;0.70;;;21.40;1.00;;;;;;5097455;28;20445;-74
2022/07/27 01:59:20;;;;;;;0.97;0.57;;;21.20;1.00;;;;;;5096395;28;20801;-73
2022/07/27 02:01:46;;;;;;;1.00;0.50;;;20.90;1.00;;;;;;5097012;28;20445;-74
2022/07/27 02:04:13;;;;;;;0.60;0.57;;;20.60;1.00;;;;;;5096624;28;20521;-74
2022/07/27 02:06:40;;;;;;;1.00;0.60;;;20.60;1.00;;;;;;5096762;28;20477;-74
2022/07/27 02:09:07;;;;;;;1.33;1.23;;;20.70;1.00;;;;;;5096768;28;20481;-74
2022/07/27 02:14:20;;;;;;;1.00;0.60;;;20.50;1.00;;;;;;5095810;28;20471;-74
2022/07/27 02:16:47;;;;;;;0.90;0.60;;;20.90;1.00;;;;;;5095812;28;20454;-73
2022/07/27 02:19:14;;;;;;;0.77;0.60;;;20.80;1.00;;;;;;5096173;28;20780;-74
2022/07/27 02:21:41;;;;;;;2.13;0.60;;;20.80;1.00;;;;;;5096059;28;20446;-74
2022/07/27 02:24:08;;;;;;;0.90;0.70;;;20.70;1.00;;;;;;5096736;28;20450;-74
2022/07/27 02:26:35;;;;;;;0.80;0.60;;;20.70;1.00;;;;;;5096858;28;20915;-74
2022/07/27 02:29:02;;;;;;;1.50;0.60;;;20.70;1.00;;;;;;5095724;28;20473;-74
2022/07/27 02:31:31;;;;;;;1.83;0.60;;;20.70;1.00;;;;;;5096297;28;20865;-74
2022/07/27 02:33:58;;;;;;;1.60;0.53;;;20.70;1.00;;;;;;5096514;28;20545;-74
2022/07/27 02:36:27;;;;;;;2.30;0.80;;;20.70;1.00;;;;;;5096491;28;20761;-74
2022/07/27 02:38:54;;;;;;;0.70;0.50;;;20.80;1.00;;;;;;5096332;28;20885;-74
2022/07/27 02:41:21;;;;;;;0.70;0.60;;;20.70;1.00;;;;;;5095637;28;20815;-74
2022/07/27 02:43:48;;;;;;;0.80;0.57;;;20.60;1.00;;;;;;5095725;28;20540;-74
2022/07/27 02:46:15;;;;;;;2.20;0.63;;;20.70;1.00;;;;;;5095796;28;20824;-74
2022/07/27 02:48:43;;;;;;;0.73;0.60;;;20.80;1.00;;;;;;5095529;28;20453;-74
2022/07/27 02:51:10;;;;;;;0.93;0.60;;;20.80;1.00;;;;;;5095928;28;20569;-74
2022/07/27 02:53:37;;;;;;;0.90;0.70;;;20.70;1.00;;;;;;5095757;28;20540;-74
2022/07/27 02:56:04;;;;;;;1.27;0.60;;;20.70;1.00;;;;;;5096269;28;20565;-74
2022/07/27 02:58:31;;;;;;;1.80;1.70;;;20.70;1.00;;;;;;5097500;28;20509;-74
2022/07/27 03:00:58;;;;;;;0.70;0.60;;;20.70;1.00;;;;;;5097101;28;20476;-74
2022/07/27 03:03:25;;;;;;;1.53;0.70;;;20.60;1.00;;;;;;5097489;28;20530;-74
2022/07/27 03:05:53;;;;;;;0.93;0.60;;;20.70;1.00;;;;;;5097964;28;20456;-74
2022/07/27 03:08:20;;;;;;;0.90;0.70;;;20.70;1.00;;;;;;5099176;28;20476;-74
2022/07/27 03:10:47;;;;;;;1.20;0.60;;;20.60;1.00;;;;;;5097915;28;20500;-74
2022/07/27 03:13:14;;;;;;;1.43;0.70;;;20.20;1.00;;;;;;5097100;28;20445;-74
2022/07/27 03:15:41;;;;;;;0.50;0.40;;;20.10;91.90;;;;;;5096359;28;20517;-75
2022/07/27 03:18:08;;;;;;;1.10;0.60;;;20.10;70.40;;;;;;5096753;28;20755;-74
2022/07/27 03:20:35;;;;;;;0.93;0.63;;;20.10;80.60;;;;;;5096602;28;20515;-74
2022/07/27 03:23:03;;;;;;;0.87;0.70;;;20.20;40.00;;;;;;5095831;28;20533;-74
2022/07/27 03:25:30;;;;;;;0.90;0.70;;;20.10;52.00;;;;;;5095825;28;20534;-74
2022/07/27 03:27:58;;;;;;;1.00;0.60;;;20.20;26.30;;;;;;5095867;28;20442;-74
2022/07/27 03:30:24;;;;;;;0.77;0.60;;;20.20;46.90;;;;;;5096159;28;20492;-74
2022/07/27 03:32:51;;;;;;;0.77;0.70;;;20.10;99.90;;;;;;5096886;28;20533;-73
2022/07/27 03:35:18;;;;;;;0.73;0.60;;;20.00;99.90;;;;;;5099507;28;20493;-74
2022/07/27 03:37:45;;;;;;;1.43;0.70;;;20.00;99.90;;;;;;5099793;28;20472;-74
2022/07/27 03:40:14;;;;;;;1.07;0.70;;;20.10;99.90;;;;;;5099565;28;20476;-74
2022/07/27 03:42:41;;;;;;;1.07;0.60;;;20.00;99.90;;;;;;5099504;28;20496;-75
2022/07/27 03:45:09;;;;;;;1.83;0.67;;;19.90;99.90;;;;;;5097818;28;20604;-74
2022/07/27 03:47:36;;;;;;;0.90;0.67;;;19.80;99.90;;;;;;5098871;28;20968;-74
2022/07/27 03:50:04;;;;;;;0.97;0.70;;;19.70;99.90;;;;;;5099485;28;20908;-74
2022/07/27 03:52:31;;;;;;;0.80;0.60;;;19.90;99.90;;;;;;5098505;28;20903;-74
2022/07/27 03:54:58;;;;;;;1.00;0.70;;;19.80;99.90;;;;;;5099502;28;20543;-73
2022/07/27 03:57:26;;;;;;;0.80;0.70;;;19.80;99.90;;;;;;5099049;28;20485;-73
2022/07/27 03:59:53;;;;;;;1.17;0.70;;;19.90;99.90;;;;;;5098932;28;20464;-74
2022/07/27 04:02:20;;;;;;;0.73;0.60;;;20.00;99.90;;;;;;5098943;28;20480;-74
2022/07/27 04:04:47;;;;;;;0.80;0.60;;;20.00;99.90;;;;;;5098496;28;20445;-74
2022/07/27 04:07:16;;;;;;;1.17;0.70;;;20.00;99.90;;;;;;5098387;28;20613;-74
2022/07/27 04:09:43;;;;;;;0.90;0.67;;;19.90;99.90;;;;;;5098142;28;20502;-74
2022/07/27 04:12:10;;;;;;;1.20;0.60;;;19.90;99.90;;;;;;5097826;28;20465;-74
2022/07/27 04:14:38;;;;;;;0.93;0.60;;;20.10;99.90;;;;;;5097624;28;20579;-74
2022/07/27 04:17:05;;;;;;;1.20;0.80;;;20.10;99.90;;;;;;5097251;28;20446;-74
2022/07/27 04:19:32;;;;;;;0.90;0.70;;;20.00;99.90;;;;;;5095962;28;20948;-74
2022/07/27 04:21:59;;;;;;;0.90;0.73;;;19.80;99.90;;;;;;5097984;28;20450;-74
2022/07/27 04:24:26;;;;;;;0.90;0.70;;;19.90;99.90;;;;;;5097404;28;20928;-75
2022/07/27 04:26:53;;;;;;;2.80;0.80;;;19.90;99.90;;;;;;5099261;28;20778;-74
2022/07/27 04:29:20;;;;;;;2.27;0.90;;;19.90;99.90;;;;;;5098464;28;20488;-75
2022/07/27 04:31:48;;;;;;;1.00;0.70;;;20.00;99.90;;;;;;5097011;28;20484;-74
2022/07/27 04:34:15;;;;;;;1.20;0.70;;;20.10;99.90;;;;;;5096520;28;20503;-74
2022/07/27 04:36:42;;;;;;;0.90;0.80;;;20.10;99.90;;;;;;5097408;28;20870;-74
2022/07/27 04:39:09;;;;;;;2.07;0.73;;;19.90;1.00;;;;;;5098027;28;20540;-74
2022/07/27 04:41:36;;;;;;;1.60;0.80;;;19.80;1.00;;;;;;5099624;28;20540;-74
2022/07/27 04:44:03;;;;;;;1.07;0.80;;;19.80;1.00;;;;;;5095131;28;20452;-76
2022/07/27 04:46:30;;;;;;;1.10;0.80;;;19.80;1.00;;;;;;5107327;28;20484;-75
2022/07/27 04:48:59;;;;;;;1.07;0.80;;;19.80;1.00;;;;;;5113473;28;20529;-75
2022/07/27 04:51:25;;;;;;;1.00;0.70;;;19.80;1.00;;;;;;5112454;28;20511;-76
2022/07/27 04:53:53;;;;;;;1.17;0.70;;;19.90;1.00;;;;;;5115587;28;20467;-75
2022/07/27 04:56:19;;;;;;;1.10;0.70;;;19.90;1.00;;;;;;5112382;28;20583;-75
2022/07/27 04:58:46;;;;;;;0.90;0.70;;;19.80;1.00;;;;;;5103073;28;20461;-75
2022/07/27 05:01:13;;;;;;;1.20;0.70;;;19.90;1.00;;;;;;5094703;28;20811;-76
2022/07/27 05:03:41;;;;;;;3.20;1.43;;;20.10;1.00;;;;;;5109889;28;20495;-75
2022/07/27 05:06:10;;;;;;;0.90;0.73;;;20.20;1.00;;;;;;5113147;28;20944;-75
2022/07/27 05:08:37;;;;;;;0.97;0.70;;;20.20;99.90;;;;;;5106290;28;21005;-73
2022/07/27 05:11:04;;;;;;;1.20;0.77;;;20.00;1.00;;;;;;5115338;28;20541;-74
2022/07/27 05:13:30;;;;;;;1.30;0.80;;;20.10;1.00;;;;;;5103758;28;20720;-73
2022/07/27 05:15:57;;;;;;;1.00;0.70;;;20.10;99.90;;;;;;5095034;28;20520;-74
2022/07/27 05:18:25;;;;;;;0.90;0.73;;;20.00;1.00;;;;;;5115379;28;20500;-74
2022/07/27 05:20:52;;;;;;;0.97;0.77;;;20.10;1.00;;;;;;5114167;28;20559;-74
2022/07/27 05:23:20;;;;;;;1.00;0.80;;;20.20;1.00;;;;;;5114922;28;20577;-73
2022/07/27 05:25:47;;;;;;;1.60;0.90;;;20.20;99.90;;;;;;5113797;28;20484;-74
2022/07/27 05:28:14;;;;;;;1.00;0.77;;;20.30;99.90;;;;;;5104060;28;20545;-74
2022/07/27 05:30:41;;;;;;;1.00;0.83;;;20.20;99.90;;;;;;5113861;28;20465;-74
2022/07/27 05:33:08;;;;;;;2.27;0.80;;;20.30;99.90;;;;;;5113962;28;20476;-74
2022/07/27 05:35:35;;;;;;;1.17;0.80;;;20.20;99.90;;;;;;5109791;28;20483;-74
2022/07/27 05:38:02;;;;;;;1.03;0.90;;;20.30;1.00;;;;;;5111173;28;20488;-74
2022/07/27 05:40:31;;;;;;;1.10;0.77;;;20.30;99.90;;;;;;5117292;28;20767;-74
2022/07/27 05:42:59;;;;;;;1.17;1.00;;;20.30;99.90;;;;;;5107549;28;20862;-74
2022/07/27 05:45:26;;;;;;;0.90;0.80;;;20.40;99.90;;;;;;5114132;28;20445;-73
2022/07/27 05:47:54;;;;;;;1.20;0.80;;;20.50;99.90;;;;;;5110599;28;20503;-74
2022/07/27 05:50:21;;;;;;;1.03;0.87;;;20.50;99.90;;;;;;5099342;28;20521;-74
2022/07/27 05:52:48;;;;;;;0.80;0.70;;;20.50;99.90;;;;;;5113726;28;20547;-75
2022/07/27 05:55:15;;;;;;;2.13;0.70;;;20.50;99.90;;;;;;5111848;28;20461;-76
2022/07/27 05:57:43;;;;;;;1.30;0.83;;;20.60;99.90;;;;;;5097074;28;20533;-76
2022/07/27 06:00:12;;;;;;;0.83;0.70;;;20.60;99.90;;;;;;5113028;28;21086;-76
2022/07/27 06:02:39;;;;;;;1.00;0.80;;;20.60;99.90;;;;;;5096035;28;20529;-76
2022/07/27 06:05:07;;;;;;;1.10;0.90;;;20.80;99.90;;;;;;5113134;28;20514;-76
2022/07/27 06:10:19;;;;;;;3.83;0.80;;;21.00;99.90;;;;;;5105127;28;20451;-78
2022/07/27 06:12:53;;;;;;;1.73;0.80;;;21.20;99.90;;;;;;5096356;28;20832;-78
2022/07/27 06:15:24;;;;;;;0.90;0.80;;;21.20;35.60;;;;;;5104204;28;20511;-77
2022/07/27 06:17:52;;;;;;;1.13;0.87;;;21.20;34.80;;;;;;5096298;28;20485;-78
2022/07/27 06:20:21;;;;;;;1.10;0.80;;;21.10;46.20;;;;;;5111532;28;20782;-78
2022/07/27 06:22:49;;;;;;;0.90;0.80;;;21.00;72.60;;;;;;5108383;28;20492;-79
2022/07/27 06:25:17;;;;;;;1.10;0.80;;;21.00;87.70;;;;;;5115265;28;20457;-78
2022/07/27 06:27:44;;;;;;;1.03;0.93;;;21.00;91.70;;;;;;5112351;28;20456;-79
2022/07/27 06:30:15;;;;;;;0.90;0.80;;;21.00;99.90;;;;;;5115808;28;20452;-79
2022/07/27 06:32:43;;;;;;;1.10;0.87;;;21.10;99.90;;;;;;5103220;28;20536;-78
2022/07/27 06:35:11;;;;;;;2.10;0.80;;;21.50;65.70;;;;;;5104185;28;20444;-78
2022/07/27 06:37:42;;;;;;;1.00;0.90;;;21.60;4.60;;;;;;5116496;28;20869;-79
2022/07/27 06:40:11;;;;;;;1.60;0.90;;;21.60;1.00;;;;;;5108670;28;20461;-82
2022/07/27 06:42:38;;;;;;;1.03;0.70;;;21.60;1.00;;;;;;5101105;28;20468;-78
2022/07/27 06:45:06;;;;;;;1.33;0.90;;;21.50;1.00;;;;;;5113573;28;20448;-78
2022/07/27 06:47:35;;;;;;;2.23;0.90;;;21.60;1.00;;;;;;5114776;28;20456;-78
2022/07/27 06:50:06;;;;;;;1.70;1.00;;;21.60;1.00;;;;;;5111330;28;20488;-80
2022/07/27 06:52:35;;;;;;;2.33;0.80;;;21.50;1.00;;;;;;5087625;28;20548;-81
2022/07/27 06:55:04;;;;;;;1.47;0.87;;;21.40;1.00;;;;;;5112564;28;20452;-81
2022/07/27 06:57:31;;;;;;;0.93;0.80;;;21.40;1.00;;;;;;5111071;28;20949;-79
2022/07/27 07:00:09;;;;;;;0.90;0.77;;;21.50;1.00;;;;;;5119884;28;22022;-77
2022/07/27 07:02:39;;;;;;;2.57;1.00;;;21.50;1.00;;;;;;5108966;28;20444;-77
2022/07/27 07:05:06;;;;;;;1.37;0.90;;;21.30;1.00;;;;;;5110083;28;20506;-78
2022/07/27 07:07:33;;;;;;;1.30;0.80;;;21.40;1.00;;;;;;5115198;28;20553;-78
2022/07/27 07:10:00;;;;;;;0.90;0.73;;;21.40;1.00;;;;;;5115668;28;20472;-78
2022/07/27 07:12:28;;;;;;;2.17;0.83;;;21.60;1.00;;;;;;5116574;28;20998;-77
2022/07/27 07:14:55;;;;;;;1.10;0.83;;;21.80;1.00;;;;;;5119331;28;20507;-78
2022/07/27 07:17:22;;;;;;;1.00;0.90;;;22.10;1.00;;;;;;5112951;28;20533;-79
2022/07/27 07:19:50;;;;;;;1.63;1.00;;;22.20;1.00;;;;;;5105429;28;20461;-77
2022/07/27 07:22:17;;;;;;;1.13;0.80;;;22.20;1.00;;;;;;5108119;28;20798;-79
2022/07/27 07:24:45;;;;;;;1.03;0.80;;;22.00;1.00;;;;;;5105276;28;20449;-79
2022/07/27 07:27:12;;;;;;;1.07;0.90;;;22.00;1.00;;;;;;5115041;28;20484;-75
2022/07/27 07:29:40;;;;;;;1.43;0.90;;;22.20;1.00;;;;;;5115894;28;20555;-76
2022/07/27 07:32:07;;;;;;;1.47;0.80;;;22.50;1.00;;;;;;5109039;28;20460;-74
2022/07/27 07:34:34;;;;;;;1.50;0.80;;;22.40;1.00;;;;;;5122389;27;20495;-77
2022/07/27 07:37:03;;;;;;;1.00;0.90;;;22.50;1.00;;;;;;5118345;27;20475;-76
2022/07/27 07:39:30;;;;;;;1.30;1.00;;;22.30;1.00;;;;;;5112565;28;20809;-75
2022/07/27 07:41:57;;;;;;;3.07;0.97;;;22.40;1.00;;;;;;5111044;28;20476;-75
2022/07/27 07:44:27;;;;;;;2.07;0.90;;;22.50;1.00;;;;;;5107070;28;20538;-76
2022/07/27 07:46:54;;;;;;;1.07;0.80;;;22.60;1.00;;;;;;5118120;28;20533;-77
2022/07/27 07:49:21;;;;;;;1.43;0.90;;;22.70;1.00;;;;;;5111562;28;20489;-76
2022/07/27 07:51:49;;;;;;;1.00;0.83;;;22.80;1.00;;;;;;5114481;28;20484;-77
2022/07/27 07:54:17;;;;;;;1.00;0.90;;;22.70;1.00;;;;;;5117921;28;20488;-76
2022/07/27 07:56:44;;;;;;;1.43;0.90;;;22.80;1.00;;;;;;5096514;28;20570;-75
2022/07/27 07:59:11;;;;;;;1.03;0.90;;;23.00;1.00;;;;;;5116463;28;20498;-75
2022/07/27 08:01:38;;;;;;;1.10;0.90;;;22.90;1.00;;;;;;5117566;28;20452;-75
2022/07/27 08:04:07;;;;;;;1.23;0.80;;;23.00;1.00;;;;;;5117707;28;20480;-75
2022/07/27 08:06:34;;;;;;;1.10;0.87;;;23.20;1.00;;;;;;5115378;28;20518;-75
2022/07/27 08:09:03;;;;;;;1.10;0.90;;;23.30;1.00;;;;;;5102540;28;20461;-76
2022/07/27 08:11:32;;;;;;;1.40;0.83;;;23.40;1.00;;;;;;5100189;28;20451;-74
2022/07/27 08:13:59;;;;;;;0.90;0.70;;;23.40;1.00;;;;;;5117765;28;20481;-75
2022/07/27 08:16:26;;;;;;;3.03;1.00;;;23.40;1.00;;;;;;5118726;28;20484;-76
2022/07/27 08:18:54;;;;;;;1.50;0.90;;;23.40;1.00;;;;;;5109621;28;20582;-75
2022/07/27 08:21:24;;;;;;;1.00;0.90;;;23.40;1.00;;;;;;5117880;28;20468;-77
2022/07/27 08:23:51;;;;;;;3.00;0.87;;;23.60;1.00;;;;;;5114968;28;20545;-76
2022/07/27 08:26:19;;;;;;;4.00;1.00;;;23.60;1.00;;;;;;5098219;28;20476;-75
2022/07/27 08:28:48;;;;;;;0.90;0.70;;;23.40;1.00;;;;;;5099578;28;20923;-77
2022/07/27 08:31:15;;;;;;;1.40;1.00;;;23.10;1.00;;;;;;5110328;28;20467;-76
2022/07/27 08:33:43;;;;;;;2.60;0.80;;;23.40;1.00;;;;;;5117987;28;20513;-74
2022/07/27 08:36:11;;;;;;;1.10;0.80;;;23.50;1.00;;;;;;5116917;28;20457;-76
2022/07/27 08:38:39;;;;;;;1.00;0.77;;;23.30;1.00;;;;;;5117236;28;20947;-77
2022/07/27 08:41:08;;;;;;;1.20;1.00;;;23.60;1.00;;;;;;5117731;28;20733;-75
2022/07/27 08:43:35;;;;;;;1.20;0.90;;;23.70;1.00;;;;;;5116987;28;20543;-75
2022/07/27 08:46:04;;;;;;;1.67;0.90;;;23.70;1.00;;;;;;5101231;28;20499;-76
2022/07/27 08:48:32;;;;;;;0.90;0.80;;;23.80;1.00;;;;;;5098494;28;20507;-74
2022/07/27 08:50:59;;;;;;;1.67;0.93;;;23.70;1.00;;;;;;5107053;28;20480;-74
2022/07/27 08:53:26;;;;;;;1.00;0.90;;;23.60;1.00;;;;;;5114122;28;20542;-77
2022/07/27 08:56:03;;;;;;;1.00;0.90;;;23.80;1.00;;;;;;5115208;28;20459;-76
2022/07/27 08:58:30;;;;;;;1.60;0.90;;;24.00;1.00;;;;;;5114973;28;21110;-76
2022/07/27 09:00:58;;;;;;;0.90;0.80;;;24.30;1.00;;;;;;5096964;28;20493;-76
2022/07/27 09:03:26;;;;;;;1.07;0.70;;;24.20;1.00;;;;;;5111638;28;21060;-77
2022/07/27 09:05:57;;;;;;;1.30;0.90;;;24.20;1.00;;;;;;5121410;27;20492;-76
2022/07/27 09:08:26;;;;;;;1.20;0.80;;;24.30;1.00;;;;;;5115282;27;21061;-73
2022/07/27 09:10:56;;;;;;;1.63;0.90;;;24.20;1.00;;;;;;5114752;27;20453;-74
2022/07/27 09:13:26;;;;;;;1.00;0.87;;;24.30;1.00;;;;;;5111618;27;20450;-74
2022/07/27 09:15:55;;;;;;;1.57;0.80;;;24.50;1.00;;;;;;5116175;28;20449;-76
2022/07/27 09:18:23;;;;;;;1.00;0.80;;;24.20;1.00;;;;;;5115628;28;20481;-76
2022/07/27 09:21:11;;;;;;;1.57;1.00;;;24.40;1.00;;;;;;5108694;28;20963;-77
2022/07/27 09:23:39;;;;;;;1.33;0.83;;;24.40;1.00;;;;;;5104681;28;20497;-74
2022/07/27 09:26:13;;;;;;;1.50;1.00;;;24.50;1.00;;;;;;5113066;27;20512;-74
2022/07/27 09:28:40;;;;;;;1.17;0.80;;;24.30;1.00;;;;;;5109794;28;20465;-74
2022/07/27 09:31:08;;;;;;;1.17;0.90;;;24.70;1.00;;;;;;5106136;28;20511;-77
2022/07/27 09:33:46;;;;;;;1.00;0.87;;;24.60;1.00;;;;;;5114291;27;20457;-77
2022/07/27 09:36:16;;;;;;;0.90;0.80;;;24.40;1.00;;;;;;5123385;27;20464;-75
2022/07/27 09:38:52;;;;;;;1.20;0.70;;;24.50;1.00;;;;;;5108100;27;20561;-78
2022/07/27 09:41:19;;;;;;;1.27;0.80;;;24.70;1.00;;;;;;5101064;28;20526;-75
2022/07/27 09:43:49;;;;;;;1.50;0.80;;;25.00;1.00;;;;;;5114857;28;20448;-78
2022/07/27 09:46:27;;;;;;;1.00;0.80;;;25.20;1.00;;;;;;5115184;28;20496;-76
2022/07/27 09:48:56;;;;;;;1.20;0.90;;;25.50;1.00;;;;;;5116063;28;20481;-74
2022/07/27 09:51:25;;;;;;;1.00;0.80;;;25.60;1.00;;;;;;5116724;27;21063;-74
2022/07/27 09:53:53;;;;;;;1.23;0.80;;;25.50;1.00;;;;;;5108921;28;20453;-76
2022/07/27 09:59:10;;;;;;;0.90;0.80;;;25.20;1.00;;;;;;5115707;28;20888;-75
2022/07/27 10:01:39;;;;;;;0.90;0.77;;;25.10;1.00;;;;;;5107234;28;20449;-76
2022/07/27 10:04:09;;;;;;;3.10;1.00;;;25.00;1.00;;;;;;5114143;28;20502;-75
2022/07/27 10:06:38;;;;;;;1.30;0.90;;;24.90;1.00;;;;;;5112773;28;20497;-75
2022/07/27 10:09:05;;;;;;;1.33;0.80;;;24.90;1.00;;;;;;5113109;28;20966;-76
2022/07/27 10:11:32;;;;;;;2.37;0.90;;;25.00;1.00;;;;;;5112272;28;20543;-78
2022/07/27 10:13:59;;;;;;;2.00;0.80;;;25.20;1.00;;;;;;5112859;28;20480;-77
2022/07/27 10:16:28;;;;;;;0.90;0.80;;;25.40;1.00;;;;;;5114597;28;20796;-79
2022/07/27 10:19:00;;;;;;;1.03;0.77;;;25.60;1.00;;;;;;5114150;28;20452;-78
2022/07/27 10:21:28;;;;;;;1.70;0.90;;;25.90;1.00;;;;;;5114295;28;20918;-78
2022/07/27 10:23:58;;;;;;;1.60;0.90;;;26.20;1.00;;;;;;5111256;28;20465;-78
2022/07/27 10:26:32;;;;;;;1.00;0.80;;;26.60;1.00;;;;;;5102990;28;20563;-80
2022/07/27 10:29:02;;;;;;;1.73;0.80;;;26.70;1.00;;;;;;5111519;28;20484;-78
2022/07/27 10:31:32;;;;;;;1.67;0.80;;;26.90;1.00;;;;;;5115491;28;20468;-79
2022/07/27 10:34:00;;;;;;;1.10;0.80;;;27.00;1.00;;;;;;5106683;28;20522;-79
2022/07/27 10:36:48;;;;;;;1.20;0.80;;;26.90;1.00;;;;;;5101592;28;21081;-79
2022/07/27 10:39:33;;;;;;;1.30;0.80;;;26.60;1.00;;;;;;5105418;27;20476;-79
2022/07/27 10:42:24;;;;;;;1.10;0.73;;;26.70;1.00;;;;;;5111833;28;20456;-78
2022/07/27 10:45:04;;;;;;;0.80;0.70;;;27.10;1.00;;;;;;5110096;28;20500;-79
2022/07/27 10:47:35;;;;;;;1.70;0.80;;;27.00;1.00;;;;;;5104941;28;20847;-79
2022/07/27 10:50:24;;;;;;;3.57;0.90;;;27.00;1.00;;;;;;5112836;28;20480;-78
2022/07/27 10:52:54;;;;;;;3.77;0.90;;;27.30;1.00;;;;;;5094046;28;21036;-77
2022/07/27 10:55:54;;;;;;;0.90;0.80;;;27.40;1.00;;;;;;5106814;28;21126;-78
2022/07/27 10:58:44;;;;;;;0.93;0.90;;;27.50;1.00;;;;;;5112773;28;20480;-80
2022/07/27 11:01:12;;;;;;;1.03;0.80;;;27.70;1.00;;;;;;5113105;28;20554;-76
2022/07/27 11:03:40;;;;;;;1.00;0.87;;;27.70;1.00;;;;;;5114261;28;20546;-76
2022/07/27 11:06:10;;;;;;;0.90;0.80;;;27.50;1.00;;;;;;5111172;28;20543;-76
2022/07/27 11:08:40;;;;;;;1.03;0.80;;;27.50;1.00;;;;;;5109534;28;20457;-76
2022/07/27 11:11:10;;;;;;;0.90;0.80;;;27.40;1.00;;;;;;5112182;28;20457;-77
2022/07/27 11:13:37;;;;;;;1.00;0.70;;;27.60;1.00;;;;;;5110360;28;20460;-77
2022/07/27 11:16:06;;;;;;;0.73;0.70;;;27.70;1.00;;;;;;5111997;28;20471;-76
2022/07/27 11:18:35;;;;;;;0.70;0.67;;;27.30;1.00;;;;;;5099492;28;20508;-76
2022/07/27 11:21:26;;;;;;;0.70;0.60;;;27.20;1.00;;;;;;5110419;28;20485;-76
2022/07/27 11:23:55;;;;;;;0.83;0.60;;;27.20;1.00;;;;;;5086233;28;20544;-80
2022/07/27 11:26:25;;;;;;;1.30;0.80;;;27.20;1.00;;;;;;5104835;28;20437;-76
2022/07/27 11:28:53;;;;;;;1.47;0.90;;;26.90;1.00;;;;;;5105667;28;20954;-79
2022/07/27 11:31:21;;;;;;;7.50;0.70;;;27.00;1.00;;;;;;5109531;28;21131;-79
2022/07/27 11:33:53;;;;;;;0.70;0.60;;;26.90;1.00;;;;;;5109482;28;20552;-78
2022/07/27 11:36:20;;;;;;;0.90;0.80;;;27.00;1.00;;;;;;5113000;28;20547;-78
2022/07/27 11:38:48;;;;;;;0.70;0.70;;;27.30;1.00;;;;;;5122368;28;20520;-78
2022/07/27 11:41:24;;;;;;;1.07;0.60;;;27.30;1.00;;;;;;5116795;27;20460;-79
2022/07/27 11:43:52;;;;;;;1.07;0.70;;;27.40;1.00;;;;;;5111919;28;20448;-80
2022/07/27 11:46:22;;;;;;;0.80;0.70;;;27.40;1.00;;;;;;5105512;28;20552;-80
2022/07/27 11:49:00;;;;;;;0.90;0.80;;;27.00;1.00;;;;;;5112521;28;20453;-80
2022/07/27 11:51:29;;;;;;;0.73;0.60;;;27.00;1.00;;;;;;5102234;28;20616;-78
2022/07/27 11:54:10;;;;;;;1.17;0.70;;;27.40;1.00;;;;;;5111580;28;20943;-75
2022/07/27 11:56:42;;;;;;;0.70;0.60;;;27.60;1.00;;;;;;5089115;28;20464;-77
2022/07/27 11:59:15;;;;;;;1.23;0.70;;;27.80;1.00;;;;;;5113712;28;20946;-77
2022/07/27 12:01:44;;;;;;;0.80;0.60;;;27.70;1.00;;;;;;5110919;28;20551;-76
2022/07/27 12:04:18;;;;;;;0.70;0.60;;;28.10;1.00;;;;;;5110128;28;20932;-77
2022/07/27 12:06:48;;;;;;;0.90;0.70;;;28.00;1.00;;;;;;5113798;28;20464;-77
2022/07/27 12:09:17;;;;;;;1.03;0.60;;;27.80;1.00;;;;;;5114565;28;20468;-76
2022/07/27 12:11:54;;;;;;;0.83;0.60;;;27.50;1.00;;;;;;5115024;28;20452;-77
2022/07/27 12:14:28;;;;;;;0.80;0.60;;;27.40;1.00;;;;;;5111242;27;20553;-77
2022/07/27 12:17:07;;;;;;;1.77;0.60;;;27.80;1.00;;;;;;5114966;28;20910;-75
2022/07/27 12:19:35;;;;;;;0.70;0.60;;;28.30;1.00;;;;;;5116334;27;20888;-76
2022/07/27 12:22:02;;;;;;;2.10;0.70;;;28.10;1.00;;;;;;5112351;28;20453;-77
2022/07/27 12:24:37;;;;;;;0.70;0.57;;;28.00;1.00;;;;;;5113754;27;20452;-76
2022/07/27 12:27:13;;;;;;;0.80;0.60;;;28.00;1.00;;;;;;5115442;28;20448;-77
2022/07/27 12:30:14;;;;;;;0.73;0.60;;;28.20;1.00;;;;;;5111150;27;20559;-76
2022/07/27 12:32:45;;;;;;;0.80;0.60;;;28.30;1.00;;;;;;5049096;28;20471;-78
2022/07/27 12:35:24;;;;;;;1.33;0.60;;;28.30;1.00;;;;;;5105646;28;20517;-77
2022/07/27 12:38:00;;;;;;;0.63;0.50;;;27.60;1.00;;;;;;5109022;27;20472;-78
2022/07/27 12:40:28;;;;;;;0.80;0.60;;;27.40;1.00;;;;;;5112144;27;20564;-76
2022/07/27 12:42:59;;;;;;;0.57;0.50;;;27.40;1.00;;;;;;5105221;28;20868;-77
2022/07/27 12:45:34;;;;;;;0.77;0.50;;;27.50;1.00;;;;;;5108365;28;20456;-77
2022/07/27 12:48:14;;;;;;;1.90;0.50;;;27.50;1.00;;;;;;5105528;28;20452;-78
2022/07/27 12:50:43;;;;;;;0.70;0.50;;;27.30;1.00;;;;;;5115876;27;20502;-74
2022/07/27 12:53:12;;;;;;;0.60;0.50;;;27.20;1.00;;;;;;5115509;27;20569;-72
2022/07/27 12:55:40;;;;;;;0.80;0.50;;;27.20;1.00;;;;;;5116058;28;20568;-73
2022/07/27 12:58:10;;;;;;;0.50;0.40;;;27.10;1.00;;;;;;5106621;28;20481;-73
2022/07/27 13:00:38;;;;;;;0.70;0.53;;;27.20;1.00;;;;;;5116859;28;20551;-74
2022/07/27 13:03:07;;;;;;;1.27;0.50;;;27.30;1.00;;;;;;5116821;28;20484;-72
2022/07/27 13:05:36;;;;;;;0.60;0.50;;;27.60;1.00;;;;;;5116437;28;20453;-73
2022/07/27 13:08:04;;;;;;;0.83;0.60;;;28.10;1.00;;;;;;5115304;28;20869;-74
2022/07/27 13:10:32;;;;;;;0.90;0.50;;;28.60;1.00;;;;;;5115606;28;20869;-73
2022/07/27 13:12:59;;;;;;;0.90;0.50;;;29.10;1.00;;;;;;5114634;28;20437;-74